Time;durP1;ratioP1;P1;durP2;ratioP2;P2;SDS_P1;SDS_P2;PMS_P1;PMS_P2;Temp;Humidity;BMP_temperature;BMP_pressure;BME280_temperature;BME280_humidity;BME280_pressure;Samples;Min_cycle;Max_cycle;Signal;HPM_P1;HPM_P2
2021/05/16 00:00:07;;;;;;;5.72;4.30;;;;;;;;;;4953754;28;20504;-77
2021/05/16 00:02:34;;;;;;;8.50;4.55;;;;;;;;;;4941763;28;20166;-76
2021/05/16 00:05:02;;;;;;;9.77;4.50;;;;;;;;;;4938242;29;20122;-76
2021/05/16 00:07:29;;;;;;;7.47;4.18;;;;;;;;;;4942300;28;20114;-76
2021/05/16 00:09:56;;;;;;;5.95;4.47;;;;;;;;;;4946272;29;20055;-76
2021/05/16 00:12:23;;;;;;;8.57;4.20;;;;;;;;;;4948049;28;20081;-77
2021/05/16 00:14:51;;;;;;;6.47;4.57;;;;;;;;;;4935729;28;20087;-76
2021/05/16 00:17:18;;;;;;;6.93;4.13;;;;;;;;;;4947822;28;20544;-77
2021/05/16 00:19:47;;;;;;;6.97;4.03;;;;;;;;;;4942300;28;20658;-76
2021/05/16 00:22:14;;;;;;;6.55;4.47;;;;;;;;;;4936555;28;20445;-76
2021/05/16 00:24:41;;;;;;;7.38;4.60;;;;;;;;;;4933005;28;20136;-76
2021/05/16 00:27:08;;;;;;;8.57;4.63;;;;;;;;;;4936889;28;20147;-76
2021/05/16 00:29:36;;;;;;;7.30;4.25;;;;;;;;;;4936830;28;20122;-76
2021/05/16 00:32:03;;;;;;;10.70;4.65;;;;;;;;;;4945355;28;20066;-76
2021/05/16 00:34:31;;;;;;;6.40;4.22;;;;;;;;;;4947835;28;20054;-76
2021/05/16 00:36:58;;;;;;;16.80;5.07;;;;;;;;;;4948350;28;20122;-76
2021/05/16 00:39:25;;;;;;;6.28;4.13;;;;;;;;;;4944740;28;20496;-76
2021/05/16 00:41:53;;;;;;;6.18;4.00;;;;;;;;;;4942958;28;20500;-76
2021/05/16 00:44:22;;;;;;;6.18;4.43;;;;;;;;;;4949050;29;20063;-76
2021/05/16 00:46:49;;;;;;;6.63;4.47;;;;;;;;;;4943214;28;20130;-76
2021/05/16 00:49:16;;;;;;;7.82;4.53;;;;;;;;;;4951232;28;20051;-76
2021/05/16 00:51:44;;;;;;;9.82;4.47;;;;;;;;;;4951871;28;20039;-76
2021/05/16 00:54:11;;;;;;;5.68;4.50;;;;;;;;;;4952567;28;20101;-77
2021/05/16 00:56:39;;;;;;;10.07;5.10;;;;;;;;;;4947264;28;20122;-76
2021/05/16 00:59:06;;;;;;;5.55;4.55;;;;;;;;;;4945547;28;20134;-76
2021/05/16 01:01:33;;;;;;;6.65;4.85;;;;;;;;;;4941647;29;20083;-76
2021/05/16 01:04:01;;;;;;;7.93;5.03;;;;;;;;;;4931482;29;20055;-76
2021/05/16 01:06:28;;;;;;;10.50;4.50;;;;;;;;;;4947673;28;20129;-76
2021/05/16 01:08:57;;;;;;;7.03;4.63;;;;;;;;;;4933617;28;20158;-76
2021/05/16 01:11:31;;;;;;;6.60;4.55;;;;;;;;;;4944497;28;20138;-76
2021/05/16 01:13:58;;;;;;;6.60;5.10;;;;;;;;;;4942947;28;20131;-76
2021/05/16 01:16:25;;;;;;;8.25;4.72;;;;;;;;;;4948997;28;20082;-76
2021/05/16 01:18:52;;;;;;;7.35;4.45;;;;;;;;;;4944794;29;20094;-76
2021/05/16 01:21:21;;;;;;;6.97;5.13;;;;;;;;;;4936809;28;20163;-76
2021/05/16 01:23:49;;;;;;;6.00;4.70;;;;;;;;;;4931788;29;20050;-77
2021/05/16 01:26:16;;;;;;;8.77;5.00;;;;;;;;;;4931361;29;20134;-77
2021/05/16 01:28:44;;;;;;;8.10;4.75;;;;;;;;;;4941329;28;20099;-76
2021/05/16 01:31:12;;;;;;;7.88;4.85;;;;;;;;;;4939520;28;20047;-76
2021/05/16 01:33:39;;;;;;;8.30;4.63;;;;;;;;;;4946854;28;20047;-77
2021/05/16 01:36:06;;;;;;;8.88;4.95;;;;;;;;;;4947401;28;20122;-76
2021/05/16 01:38:35;;;;;;;7.50;5.18;;;;;;;;;;4940439;28;20126;-76
2021/05/16 01:41:02;;;;;;;6.50;4.13;;;;;;;;;;4941125;28;20051;-77
2021/05/16 01:43:34;;;;;;;5.43;4.43;;;;;;;;;;4946201;28;20142;-77
2021/05/16 01:46:04;;;;;;;6.00;4.53;;;;;;;;;;4942178;28;20936;-77
2021/05/16 01:48:32;;;;;;;5.80;4.35;;;;;;;;;;4942305;28;20051;-77
2021/05/16 01:50:59;;;;;;;10.93;5.07;;;;;;;;;;4945681;29;20089;-77
2021/05/16 01:53:27;;;;;;;10.95;5.15;;;;;;;;;;4949772;28;20070;-77
2021/05/16 01:55:54;;;;;;;6.45;5.13;;;;;;;;;;4942294;28;20130;-76
2021/05/16 01:58:22;;;;;;;7.05;5.07;;;;;;;;;;4940656;28;20460;-77
2021/05/16 02:00:49;;;;;;;7.75;5.25;;;;;;;;;;4938774;29;20099;-76
2021/05/16 02:03:17;;;;;;;7.18;4.95;;;;;;;;;;4949003;28;20093;-76
2021/05/16 02:05:45;;;;;;;10.23;4.75;;;;;;;;;;4948178;29;20137;-76
2021/05/16 02:08:12;;;;;;;6.55;5.07;;;;;;;;;;4941591;28;20139;-77
2021/05/16 02:10:39;;;;;;;6.53;4.60;;;;;;;;;;4942887;28;20071;-76
2021/05/16 02:13:07;;;;;;;6.85;4.78;;;;;;;;;;4936830;29;20663;-77
2021/05/16 02:15:34;;;;;;;6.63;5.03;;;;;;;;;;4930139;29;20051;-76
2021/05/16 02:18:02;;;;;;;8.15;4.68;;;;;;;;;;4943140;28;20055;-76
2021/05/16 02:20:29;;;;;;;7.55;4.82;;;;;;;;;;4928766;29;20102;-76
2021/05/16 02:22:56;;;;;;;6.10;4.80;;;;;;;;;;4938181;28;20078;-76
2021/05/16 02:25:23;;;;;;;6.47;5.10;;;;;;;;;;4934013;28;20143;-76
2021/05/16 02:27:51;;;;;;;6.93;4.47;;;;;;;;;;4931179;28;20106;-76
2021/05/16 02:30:18;;;;;;;6.55;4.50;;;;;;;;;;4945415;28;20083;-76
2021/05/16 02:32:46;;;;;;;6.57;4.68;;;;;;;;;;4951921;28;20138;-76
2021/05/16 02:35:14;;;;;;;5.70;4.10;;;;;;;;;;4939376;28;20051;-76
2021/05/16 02:37:41;;;;;;;5.93;4.20;;;;;;;;;;4928817;29;20103;-76
2021/05/16 02:40:09;;;;;;;10.43;4.43;;;;;;;;;;4945619;28;20137;-76
2021/05/16 02:42:36;;;;;;;6.35;4.25;;;;;;;;;;4947952;29;20505;-77
2021/05/16 02:45:04;;;;;;;9.07;4.03;;;;;;;;;;4940266;28;20576;-76
2021/05/16 02:47:31;;;;;;;6.13;4.30;;;;;;;;;;4944860;28;20078;-76
2021/05/16 02:49:58;;;;;;;7.05;4.82;;;;;;;;;;4952368;28;20525;-76
2021/05/16 02:52:25;;;;;;;7.25;4.80;;;;;;;;;;4944843;28;20081;-76
2021/05/16 02:54:53;;;;;;;5.32;4.03;;;;;;;;;;4946144;28;20134;-76
2021/05/16 02:57:21;;;;;;;5.95;4.30;;;;;;;;;;4943101;28;20051;-76
2021/05/16 02:59:49;;;;;;;7.03;4.40;;;;;;;;;;4933772;28;20060;-76
2021/05/16 03:02:17;;;;;;;5.68;4.43;;;;;;;;;;4937122;29;20085;-76
2021/05/16 03:04:44;;;;;;;6.43;4.13;;;;;;;;;;4935206;28;20801;-76
2021/05/16 03:07:11;;;;;;;11.20;3.97;;;;;;;;;;4942860;28;20055;-76
2021/05/16 03:09:39;;;;;;;5.18;3.88;;;;;;;;;;4941718;29;20507;-76
2021/05/16 03:12:07;;;;;;;6.90;4.05;;;;;;;;;;4934407;28;20505;-76
2021/05/16 03:14:34;;;;;;;6.10;4.05;;;;;;;;;;4928970;29;20051;-76
2021/05/16 03:17:02;;;;;;;6.38;4.55;;;;;;;;;;4949787;28;20650;-76
2021/05/16 03:19:29;;;;;;;9.07;4.10;;;;;;;;;;4929924;29;20677;-76
2021/05/16 03:21:59;;;;;;;5.38;3.92;;;;;;;;;;4931442;29;20147;-76
2021/05/16 03:24:28;;;;;;;10.90;4.13;;;;;;;;;;4948055;28;20050;-76
2021/05/16 03:26:55;;;;;;;9.60;3.95;;;;;;;;;;4936840;28;20151;-76
2021/05/16 03:29:22;;;;;;;5.50;3.53;;;;;;;;;;4938614;29;20111;-76
2021/05/16 03:31:49;;;;;;;6.03;3.80;;;;;;;;;;4934265;28;20075;-76
2021/05/16 03:34:17;;;;;;;7.43;4.22;;;;;;;;;;4937652;28;20052;-76
2021/05/16 03:36:44;;;;;;;6.78;4.95;;;;;;;;;;4941107;28;20071;-76
2021/05/16 03:39:11;;;;;;;5.15;3.75;;;;;;;;;;4935442;28;20083;-76
2021/05/16 03:41:39;;;;;;;6.88;4.25;;;;;;;;;;4943136;29;20059;-76
2021/05/16 03:44:06;;;;;;;8.32;4.60;;;;;;;;;;4951475;28;20089;-76
2021/05/16 03:46:34;;;;;;;5.00;4.50;;;;;;;;;;4935604;28;20147;-76
2021/05/16 03:49:01;;;;;;;10.30;4.35;;;;;;;;;;4954138;28;20050;-76
2021/05/16 03:51:28;;;;;;;6.28;4.28;;;;;;;;;;4949683;28;20055;-76
2021/05/16 03:53:55;;;;;;;7.80;4.38;;;;;;;;;;4945753;28;20544;-76
2021/05/16 03:56:23;;;;;;;8.32;5.43;;;;;;;;;;4941502;28;20063;-76
2021/05/16 03:58:50;;;;;;;6.28;4.32;;;;;;;;;;4929574;28;20083;-76
2021/05/16 04:01:18;;;;;;;8.05;4.38;;;;;;;;;;4930198;29;20052;-76
2021/05/16 04:03:45;;;;;;;9.10;4.25;;;;;;;;;;4929352;29;20086;-76
2021/05/16 04:06:12;;;;;;;5.90;4.40;;;;;;;;;;4933400;29;20064;-77
2021/05/16 04:08:39;;;;;;;7.22;4.10;;;;;;;;;;4939774;28;20058;-76
2021/05/16 04:11:06;;;;;;;8.70;4.43;;;;;;;;;;4940597;28;20253;-77
2021/05/16 04:13:34;;;;;;;5.55;3.80;;;;;;;;;;4967899;28;20074;-76
2021/05/16 04:16:02;;;;;;;5.35;4.35;;;;;;;;;;4949504;28;20130;-76
2021/05/16 04:18:29;;;;;;;5.53;4.50;;;;;;;;;;4947838;29;20831;-76
2021/05/16 04:20:57;;;;;;;7.63;4.18;;;;;;;;;;4946359;28;20899;-77
2021/05/16 04:23:25;;;;;;;6.32;4.97;;;;;;;;;;4948891;29;20078;-77
2021/05/16 04:25:52;;;;;;;6.93;5.13;;;;;;;;;;4944987;28;20802;-77
2021/05/16 04:28:20;;;;;;;16.10;4.93;;;;;;;;;;4946083;28;20090;-76
2021/05/16 04:30:47;;;;;;;9.30;4.00;;;;;;;;;;4934940;28;20083;-76
2021/05/16 04:33:15;;;;;;;10.18;4.47;;;;;;;;;;4929122;29;20118;-76
2021/05/16 04:35:42;;;;;;;8.30;4.68;;;;;;;;;;4952012;28;20166;-76
2021/05/16 04:38:10;;;;;;;8.32;4.03;;;;;;;;;;4946130;29;20058;-76
2021/05/16 04:40:37;;;;;;;4.50;3.65;;;;;;;;;;4943039;29;20083;-76
2021/05/16 04:43:04;;;;;;;6.32;3.33;;;;;;;;;;4956384;28;20051;-76
2021/05/16 04:45:32;;;;;;;6.32;3.40;;;;;;;;;;4967641;28;20105;-76
2021/05/16 04:47:59;;;;;;;7.82;3.67;;;;;;;;;;4946266;28;20086;-76
2021/05/16 04:50:26;;;;;;;4.05;3.00;;;;;;;;;;4945603;28;20075;-76
2021/05/16 04:52:58;;;;;;;4.15;3.25;;;;;;;;;;4946224;28;20039;-76
2021/05/16 04:55:25;;;;;;;9.05;3.45;;;;;;;;;;4944201;28;20102;-76
2021/05/16 04:57:53;;;;;;;4.40;3.25;;;;;;;;;;4935363;29;20063;-76
2021/05/16 05:00:20;;;;;;;5.65;3.10;;;;;;;;;;4932971;28;20151;-76
2021/05/16 05:02:48;;;;;;;6.22;2.95;;;;;;;;;;4928804;29;20083;-76
2021/05/16 05:05:17;;;;;;;3.70;2.90;;;;;;;;;;4934354;28;20711;-76
2021/05/16 05:07:44;;;;;;;5.07;2.90;;;;;;;;;;4946360;28;20118;-76
2021/05/16 05:10:12;;;;;;;3.95;2.55;;;;;;;;;;4946975;28;20091;-76
2021/05/16 05:12:39;;;;;;;4.05;2.78;;;;;;;;;;4931400;29;20086;-76
2021/05/16 05:15:07;;;;;;;3.67;2.55;;;;;;;;;;4934300;28;20873;-77
2021/05/16 05:17:34;;;;;;;5.10;2.63;;;;;;;;;;4931858;28;20082;-76
2021/05/16 05:20:01;;;;;;;6.32;2.67;;;;;;;;;;4933031;29;20052;-77
2021/05/16 05:22:28;;;;;;;6.32;2.40;;;;;;;;;;4951677;28;20771;-76
2021/05/16 05:24:56;;;;;;;4.55;2.50;;;;;;;;;;4946914;28;20083;-76
2021/05/16 05:27:24;;;;;;;6.60;2.50;;;;;;;;;;4946672;28;20086;-76
2021/05/16 05:29:51;;;;;;;4.30;2.38;;;;;;;;;;4953791;28;20500;-76
2021/05/16 05:32:19;;;;;;;6.53;2.53;;;;;;;;;;4937974;28;20091;-76
2021/05/16 05:34:46;;;;;;;5.30;2.67;;;;;;;;;;4949276;28;20089;-76
2021/05/16 05:37:13;;;;;;;2.33;2.05;;;;;;;;;;4933257;29;20079;-76
2021/05/16 05:39:40;;;;;;;3.85;2.38;;;;;;;;;;4949443;28;20075;-76
2021/05/16 05:42:08;;;;;;;3.17;2.60;;;;;;;;;;4935639;28;20095;-76
2021/05/16 05:44:37;;;;;;;3.20;2.78;;;;;;;;;;4958245;28;20101;-76
2021/05/16 05:47:04;;;;;;;3.33;2.53;;;;;;;;;;4943099;28;20552;-75
2021/05/16 05:49:31;;;;;;;3.33;2.47;;;;;;;;;;4948918;28;20258;-76
2021/05/16 05:52:00;;;;;;;5.20;2.40;;;;;;;;;;4947424;29;20089;-76
2021/05/16 05:54:28;;;;;;;2.80;2.50;;;;;;;;;;4947053;28;20063;-76
2021/05/16 05:56:56;;;;;;;5.63;2.80;;;;;;;;;;4952016;28;20077;-75
2021/05/16 05:59:23;;;;;;;2.05;1.80;;;;;;;;;;4936873;28;20079;-76
2021/05/16 06:01:50;;;;;;;4.55;2.10;;;;;;;;;;4952782;28;20079;-76
2021/05/16 06:04:17;;;;;;;4.47;2.38;;;;;;;;;;4951126;28;20162;-76
2021/05/16 06:06:44;;;;;;;3.65;2.20;;;;;;;;;;4946285;28;20055;-76
2021/05/16 06:09:12;;;;;;;4.72;2.20;;;;;;;;;;4949312;28;20055;-76
2021/05/16 06:11:39;;;;;;;2.40;2.13;;;;;;;;;;4947976;28;20081;-76
2021/05/16 06:14:07;;;;;;;5.13;2.15;;;;;;;;;;4949193;28;20049;-76
2021/05/16 06:16:34;;;;;;;3.47;2.10;;;;;;;;;;4953096;28;20051;-76
2021/05/16 06:19:01;;;;;;;2.10;1.83;;;;;;;;;;4962087;28;20069;-76
2021/05/16 06:21:28;;;;;;;2.78;2.05;;;;;;;;;;4958350;28;20102;-76
2021/05/16 06:24:05;;;;;;;2.72;1.90;;;;;;;;;;4956298;28;20138;-76
2021/05/16 06:26:36;;;;;;;2.90;1.98;;;;;;;;;;4951317;28;20138;-76
2021/05/16 06:29:04;;;;;;;3.75;2.15;;;;;;;;;;4958486;28;20086;-76
2021/05/16 06:31:31;;;;;;;2.78;2.10;;;;;;;;;;4946990;28;20142;-76
2021/05/16 06:33:59;;;;;;;3.55;2.10;;;;;;;;;;4953835;28;20087;-76
2021/05/16 06:36:27;;;;;;;3.13;1.92;;;;;;;;;;4946281;28;20071;-76
2021/05/16 06:38:54;;;;;;;4.22;2.05;;;;;;;;;;4948156;29;20165;-77
2021/05/16 06:41:23;;;;;;;4.68;2.22;;;;;;;;;;4946788;28;20851;-76
2021/05/16 06:43:53;;;;;;;2.22;1.60;;;;;;;;;;4956678;28;20760;-76
2021/05/16 06:46:20;;;;;;;2.97;2.05;;;;;;;;;;4946902;28;20071;-76
2021/05/16 06:48:48;;;;;;;3.65;1.80;;;;;;;;;;4954645;28;20051;-76
2021/05/16 06:51:15;;;;;;;1.83;1.60;;;;;;;;;;4943307;28;20170;-76
2021/05/16 06:53:42;;;;;;;4.63;1.75;;;;;;;;;;4951083;28;20070;-76
2021/05/16 06:56:12;;;;;;;2.67;1.52;;;;;;;;;;4954338;28;20055;-76
2021/05/16 06:58:40;;;;;;;4.10;1.40;;;;;;;;;;4953213;28;20535;-77
2021/05/16 07:01:07;;;;;;;6.53;2.42;;;;;;;;;;4943577;28;20079;-77
2021/05/16 07:03:37;;;;;;;2.75;1.30;;;;;;;;;;4950459;28;20134;-77
2021/05/16 07:06:05;;;;;;;4.10;1.40;;;;;;;;;;4930777;28;21031;-77
2021/05/16 07:08:33;;;;;;;3.60;1.40;;;;;;;;;;4936394;28;20082;-77
2021/05/16 07:11:01;;;;;;;2.15;1.13;;;;;;;;;;4956625;28;20047;-77
2021/05/16 07:13:29;;;;;;;3.28;1.15;;;;;;;;;;4952045;28;20126;-78
2021/05/16 07:15:56;;;;;;;1.83;1.25;;;;;;;;;;4955018;28;20087;-82
2021/05/16 07:21:10;;;;;;;2.08;1.45;;;;;;;;;;4951993;28;20062;-81
2021/05/16 07:23:37;;;;;;;3.20;1.25;;;;;;;;;;4952766;28;20055;-81
2021/05/16 07:26:04;;;;;;;3.47;1.35;;;;;;;;;;4950837;29;20129;-82
2021/05/16 07:28:31;;;;;;;3.88;1.27;;;;;;;;;;4951454;29;20051;-82
2021/05/16 07:30:59;;;;;;;5.30;1.38;;;;;;;;;;4941394;29;20091;-81
2021/05/16 07:33:26;;;;;;;3.67;1.40;;;;;;;;;;4940013;29;20095;-82
2021/05/16 07:35:53;;;;;;;6.70;1.80;;;;;;;;;;4943025;29;20071;-83
2021/05/16 07:38:21;;;;;;;1.50;1.20;;;;;;;;;;4943878;29;20047;-84
2021/05/16 07:40:48;;;;;;;2.95;1.35;;;;;;;;;;4953799;29;20110;-83
2021/05/16 07:43:15;;;;;;;4.25;1.30;;;;;;;;;;4949131;28;20086;-79
2021/05/16 07:45:43;;;;;;;3.42;1.10;;;;;;;;;;4950519;28;20675;-80
2021/05/16 07:48:11;;;;;;;3.08;1.40;;;;;;;;;;4946148;29;20558;-81
2021/05/16 07:50:38;;;;;;;4.40;1.50;;;;;;;;;;4945548;29;20074;-82
2021/05/16 07:53:05;;;;;;;1.83;1.30;;;;;;;;;;4947458;29;20740;-78
2021/05/16 07:55:41;;;;;;;1.75;1.20;;;;;;;;;;4948724;29;20468;-80
2021/05/16 07:58:08;;;;;;;2.00;1.23;;;;;;;;;;4951355;29;20526;-80
2021/05/16 08:00:36;;;;;;;1.13;1.00;;;;;;;;;;4953146;29;20039;-79
2021/05/16 08:03:20;;;;;;;4.90;1.10;;;;;;;;;;4952906;28;20093;-79
2021/05/16 08:05:57;;;;;;;1.17;1.00;;;;;;;;;;4930610;28;20090;-81
2021/05/16 08:08:25;;;;;;;9.68;1.70;;;;;;;;;;4931722;28;20527;-80
2021/05/16 08:10:52;;;;;;;3.70;1.15;;;;;;;;;;4934350;28;20094;-79
2021/05/16 08:13:20;;;;;;;2.65;1.25;;;;;;;;;;4929993;28;20860;-81
2021/05/16 08:15:47;;;;;;;6.00;1.13;;;;;;;;;;4932106;29;20075;-78
2021/05/16 08:18:14;;;;;;;0.98;0.90;;;;;;;;;;4921537;29;20166;-78
2021/05/16 08:20:41;;;;;;;4.72;1.65;;;;;;;;;;4931589;28;20275;-79
2021/05/16 08:23:09;;;;;;;8.35;2.38;;;;;;;;;;4934087;28;20138;-79
2021/05/16 08:25:39;;;;;;;3.00;2.17;;;;;;;;;;4934105;28;20520;-79
2021/05/16 08:28:09;;;;;;;5.95;2.38;;;;;;;;;;4936786;29;20072;-80
2021/05/16 08:30:36;;;;;;;4.65;2.03;;;;;;;;;;4948640;28;20051;-78
2021/05/16 08:33:04;;;;;;;5.10;2.20;;;;;;;;;;4935582;29;20075;-83
2021/05/16 08:35:35;;;;;;;4.63;2.70;;;;;;;;;;4934847;29;20043;-84
2021/05/16 08:38:03;;;;;;;13.77;3.17;;;;;;;;;;4952416;28;20051;-81
2021/05/16 08:40:30;;;;;;;5.70;2.88;;;;;;;;;;4933823;28;20055;-78
2021/05/16 08:43:03;;;;;;;6.45;2.75;;;;;;;;;;4934981;29;20134;-79
2021/05/16 08:45:30;;;;;;;40.10;7.57;;;;;;;;;;4937118;28;20090;-77
2021/05/16 08:47:59;;;;;;;28.95;5.68;;;;;;;;;;4932960;28;20448;-76
2021/05/16 08:50:27;;;;;;;11.65;3.67;;;;;;;;;;4934865;28;20066;-77
2021/05/16 08:52:55;;;;;;;4.75;2.97;;;;;;;;;;4937391;28;20052;-77
2021/05/16 08:55:23;;;;;;;5.40;3.40;;;;;;;;;;4935708;28;20538;-77
2021/05/16 08:57:51;;;;;;;8.43;3.60;;;;;;;;;;4931639;28;20051;-77
2021/05/16 09:00:21;;;;;;;8.30;4.45;;;;;;;;;;4931598;28;20591;-78
2021/05/16 09:03:03;;;;;;;6.85;3.75;;;;;;;;;;4938678;28;20651;-77
2021/05/16 09:05:35;;;;;;;7.88;4.30;;;;;;;;;;4937522;28;20099;-78
2021/05/16 09:08:04;;;;;;;4.13;3.20;;;;;;;;;;4944552;28;20821;-78
2021/05/16 09:10:32;;;;;;;9.40;3.58;;;;;;;;;;4942699;28;20134;-78
2021/05/16 09:13:09;;;;;;;7.07;3.90;;;;;;;;;;4942917;29;20051;-80
2021/05/16 09:15:37;;;;;;;4.22;3.33;;;;;;;;;;4942044;28;20039;-76
2021/05/16 09:18:05;;;;;;;7.15;3.10;;;;;;;;;;4943581;29;20106;-75
2021/05/16 09:20:32;;;;;;;5.32;3.55;;;;;;;;;;4941919;28;20535;-76
2021/05/16 09:23:00;;;;;;;5.68;3.03;;;;;;;;;;4943757;28;20051;-78
2021/05/16 09:28:29;;;;;;;9.63;2.75;;;;;;;;;;4938738;29;20059;-81
2021/05/16 09:31:06;;;;;;;4.55;2.30;;;;;;;;;;4937185;29;20079;-79
2021/05/16 09:33:34;;;;;;;2.65;2.25;;;;;;;;;;4948643;29;20047;-81
2021/05/16 09:36:16;;;;;;;3.88;2.17;;;;;;;;;;4935213;29;20112;-80
2021/05/16 09:38:48;;;;;;;3.95;2.15;;;;;;;;;;4952998;28;20134;-81
2021/05/16 09:41:21;;;;;;;6.32;2.15;;;;;;;;;;4933226;29;20094;-81
2021/05/16 09:43:51;;;;;;;9.93;3.10;;;;;;;;;;4936031;29;20071;-79
2021/05/16 09:46:24;;;;;;;3.15;1.80;;;;;;;;;;4922778;29;20479;-82
2021/05/16 09:48:51;;;;;;;2.95;1.70;;;;;;;;;;4925411;29;20130;-79
2021/05/16 09:51:22;;;;;;;3.15;1.50;;;;;;;;;;4950374;28;20052;-79
2021/05/16 09:54:09;;;;;;;2.40;1.75;;;;;;;;;;4929865;29;20085;-79
2021/05/16 09:56:43;;;;;;;2.25;1.38;;;;;;;;;;4937127;29;20058;-79
2021/05/16 09:59:12;;;;;;;2.60;0.93;;;;;;;;;;4926870;29;20881;-79
2021/05/16 10:01:40;;;;;;;1.92;0.80;;;;;;;;;;4929767;29;20422;-80
2021/05/16 10:04:08;;;;;;;1.02;0.70;;;;;;;;;;4943339;29;20775;-79
2021/05/16 10:06:35;;;;;;;2.83;1.00;;;;;;;;;;4947420;29;20089;-82
2021/05/16 10:09:09;;;;;;;2.67;0.95;;;;;;;;;;4961437;28;20126;-79
2021/05/16 10:11:38;;;;;;;3.00;0.88;;;;;;;;;;4944489;29;20075;-79
2021/05/16 10:14:08;;;;;;;2.60;1.00;;;;;;;;;;4947857;29;20055;-82
2021/05/16 10:16:46;;;;;;;1.40;0.90;;;;;;;;;;4925030;29;20044;-81
2021/05/16 10:19:16;;;;;;;3.40;0.82;;;;;;;;;;4932033;29;20083;-81
2021/05/16 10:21:45;;;;;;;1.67;1.15;;;;;;;;;;4940254;29;20131;-83
2021/05/16 10:24:19;;;;;;;1.30;0.90;;;;;;;;;;4955651;28;20134;-80
2021/05/16 10:26:47;;;;;;;4.43;1.23;;;;;;;;;;4945245;29;20103;-81
2021/05/16 10:29:16;;;;;;;2.42;1.40;;;;;;;;;;4935178;29;20052;-82
2021/05/16 10:31:46;;;;;;;3.85;1.45;;;;;;;;;;4953720;28;20044;-82
2021/05/16 10:34:32;;;;;;;7.47;1.67;;;;;;;;;;4944558;29;20079;-82
2021/05/16 10:37:04;;;;;;;12.45;1.98;;;;;;;;;;4949073;29;20062;-81
2021/05/16 10:39:40;;;;;;;6.63;1.85;;;;;;;;;;4939311;29;20075;-82
2021/05/16 10:42:11;;;;;;;12.13;2.47;;;;;;;;;;4934586;29;20803;-82
2021/05/16 10:45:02;;;;;;;4.82;1.92;;;;;;;;;;4947481;29;20051;-83
2021/05/16 10:47:48;;;;;;;7.95;2.28;;;;;;;;;;4929191;29;20071;-82
2021/05/16 10:50:24;;;;;;;4.43;1.83;;;;;;;;;;4951689;28;20135;-83
2021/05/16 10:53:15;;;;;;;11.52;2.47;;;;;;;;;;4934281;29;20052;-82
2021/05/16 10:56:01;;;;;;;7.15;1.80;;;;;;;;;;4953489;28;20047;-82
2021/05/16 10:58:39;;;;;;;7.40;2.40;;;;;;;;;;4935256;29;20055;-84
2021/05/16 11:01:29;;;;;;;8.85;2.35;;;;;;;;;;4946239;29;20044;-82
2021/05/16 11:04:04;;;;;;;8.20;2.67;;;;;;;;;;4932270;29;20044;-83
2021/05/16 11:06:31;;;;;;;7.75;2.63;;;;;;;;;;4927450;29;20087;-83
2021/05/16 11:08:59;;;;;;;11.52;2.50;;;;;;;;;;4946259;28;20088;-78
2021/05/16 11:11:37;;;;;;;11.15;2.70;;;;;;;;;;4948120;28;20204;-79
2021/05/16 11:14:16;;;;;;;6.40;3.03;;;;;;;;;;4950050;28;20056;-78
2021/05/16 11:16:47;;;;;;;9.73;2.88;;;;;;;;;;4927659;29;20115;-80
2021/05/16 11:19:15;;;;;;;7.97;2.78;;;;;;;;;;4926775;29;20143;-77
2021/05/16 11:21:43;;;;;;;11.07;3.08;;;;;;;;;;4945730;28;20910;-80
2021/05/16 11:24:10;;;;;;;8.68;3.28;;;;;;;;;;4944604;28;20073;-78
2021/05/16 11:26:37;;;;;;;9.95;3.30;;;;;;;;;;4941413;28;20087;-77
2021/05/16 11:29:04;;;;;;;11.02;3.20;;;;;;;;;;4925910;29;20079;-79
2021/05/16 11:31:33;;;;;;;8.88;3.60;;;;;;;;;;4942641;28;20244;-75
2021/05/16 11:34:04;;;;;;;15.43;4.22;;;;;;;;;;4928596;29;20075;-78
2021/05/16 11:36:36;;;;;;;12.48;3.97;;;;;;;;;;4927937;29;20636;-79
2021/05/16 11:39:05;;;;;;;17.02;5.35;;;;;;;;;;4930377;29;20095;-83
2021/05/16 11:41:38;;;;;;;25.55;5.65;;;;;;;;;;4941439;29;20075;-79
2021/05/16 11:44:12;;;;;;;12.20;4.10;;;;;;;;;;4930373;29;20568;-81
2021/05/16 11:46:41;;;;;;;13.60;5.20;;;;;;;;;;4925197;29;20047;-79
2021/05/16 11:49:09;;;;;;;10.27;4.70;;;;;;;;;;4929466;29;20733;-77
2021/05/16 11:51:36;;;;;;;7.00;4.32;;;;;;;;;;4929055;29;20059;-82
2021/05/16 11:54:04;;;;;;;13.70;4.43;;;;;;;;;;4954455;28;20086;-83
2021/05/16 11:56:39;;;;;;;13.80;4.57;;;;;;;;;;4944571;28;20122;-80
2021/05/16 11:59:06;;;;;;;11.27;4.07;;;;;;;;;;4928488;29;20051;-78
2021/05/16 12:01:35;;;;;;;13.43;4.68;;;;;;;;;;4942232;29;20047;-79
2021/05/16 12:04:08;;;;;;;15.95;4.25;;;;;;;;;;4945251;29;20083;-78
2021/05/16 12:06:52;;;;;;;10.95;3.67;;;;;;;;;;4928672;28;20166;-78
2021/05/16 12:09:20;;;;;;;16.33;3.70;;;;;;;;;;4923961;29;20099;-79
2021/05/16 12:11:51;;;;;;;9.80;3.53;;;;;;;;;;4946812;28;20524;-80
2021/05/16 12:14:19;;;;;;;14.32;3.60;;;;;;;;;;4926724;29;20107;-79
2021/05/16 12:16:59;;;;;;;9.05;2.70;;;;;;;;;;4947185;28;20056;-78
2021/05/16 12:19:28;;;;;;;4.95;1.92;;;;;;;;;;4943194;29;20051;-78
2021/05/16 12:22:01;;;;;;;9.02;2.30;;;;;;;;;;4936949;29;20489;-77
2021/05/16 12:24:33;;;;;;;8.00;2.00;;;;;;;;;;4933177;29;20066;-80
2021/05/16 12:27:00;;;;;;;9.90;2.92;;;;;;;;;;4933420;29;20052;-76
2021/05/16 12:29:28;;;;;;;8.60;2.47;;;;;;;;;;4933189;29;20043;-75
2021/05/16 12:31:56;;;;;;;5.40;2.10;;;;;;;;;;4947919;28;20062;-78
2021/05/16 12:34:24;;;;;;;7.90;1.83;;;;;;;;;;4935253;29;20043;-78
2021/05/16 12:36:53;;;;;;;4.10;1.60;;;;;;;;;;4933292;29;20051;-76
2021/05/16 12:39:39;;;;;;;5.90;1.65;;;;;;;;;;4938607;29;20083;-83
2021/05/16 12:42:26;;;;;;;3.10;1.80;;;;;;;;;;4941725;29;20086;-84
2021/05/16 12:45:19;;;;;;;3.83;1.90;;;;;;;;;;4965079;28;20139;-86
2021/05/16 12:48:05;;;;;;;3.63;2.13;;;;;;;;;;4929255;29;20099;-87
2021/05/16 12:50:33;;;;;;;3.55;1.77;;;;;;;;;;4925335;29;20043;-87
2021/05/16 12:53:20;;;;;;;4.13;2.10;;;;;;;;;;4942488;29;20047;-84
2021/05/16 12:55:50;;;;;;;2.65;1.45;;;;;;;;;;4931637;29;20040;-86
2021/05/16 12:58:36;;;;;;;5.25;2.00;;;;;;;;;;4956642;28;20500;-85
2021/05/16 13:01:03;;;;;;;3.85;1.67;;;;;;;;;;4949758;29;20070;-84
2021/05/16 13:03:34;;;;;;;4.15;1.65;;;;;;;;;;4943613;29;20075;-84
2021/05/16 13:06:02;;;;;;;4.97;1.20;;;;;;;;;;4937035;29;20052;-85
2021/05/16 13:08:34;;;;;;;2.28;1.10;;;;;;;;;;4935964;29;20048;-83
2021/05/16 13:11:10;;;;;;;3.42;1.45;;;;;;;;;;4934701;29;20115;-82
2021/05/16 13:13:43;;;;;;;2.85;1.13;;;;;;;;;;4939456;29;20072;-82
2021/05/16 13:16:13;;;;;;;3.17;1.08;;;;;;;;;;4926114;29;20068;-83
2021/05/16 13:18:52;;;;;;;2.45;1.27;;;;;;;;;;4936166;29;20040;-83
2021/05/16 13:21:20;;;;;;;1.30;0.98;;;;;;;;;;4929615;29;20079;-84
2021/05/16 13:23:56;;;;;;;2.47;1.27;;;;;;;;;;4949839;29;20529;-79
2021/05/16 13:26:42;;;;;;;2.25;1.50;;;;;;;;;;4944953;23;20118;-82
2021/05/16 13:29:11;;;;;;;3.33;1.50;;;;;;;;;;4953971;28;20471;-83
2021/05/16 13:31:40;;;;;;;2.35;1.60;;;;;;;;;;4962405;28;20043;-83
2021/05/16 13:34:19;;;;;;;4.43;1.38;;;;;;;;;;4966855;28;20169;-82
2021/05/16 13:36:49;;;;;;;1.80;1.25;;;;;;;;;;4982904;28;20070;-83
2021/05/16 13:39:17;;;;;;;3.72;1.48;;;;;;;;;;4972783;28;20053;-82
2021/05/16 13:41:45;;;;;;;4.35;1.52;;;;;;;;;;4969298;28;20050;-84
2021/05/16 13:44:13;;;;;;;4.32;1.70;;;;;;;;;;4969105;28;20118;-84
2021/05/16 13:46:42;;;;;;;2.58;1.40;;;;;;;;;;4957474;28;20074;-84
2021/05/16 13:49:12;;;;;;;8.32;2.20;;;;;;;;;;4972893;28;20050;-84
2021/05/16 13:51:40;;;;;;;2.22;1.33;;;;;;;;;;4965041;28;20137;-82
2021/05/16 13:54:12;;;;;;;2.10;1.50;;;;;;;;;;4961268;28;20459;-81
2021/05/16 13:56:41;;;;;;;3.65;1.92;;;;;;;;;;4950976;28;20051;-81
2021/05/16 13:59:10;;;;;;;5.15;1.50;;;;;;;;;;4957794;28;20440;-81
2021/05/16 14:01:38;;;;;;;5.68;1.55;;;;;;;;;;4972190;28;20136;-81
2021/05/16 14:04:06;;;;;;;3.10;1.40;;;;;;;;;;4971732;28;20047;-81
2021/05/16 14:06:34;;;;;;;4.10;1.42;;;;;;;;;;4969985;28;20656;-87
2021/05/16 14:09:02;;;;;;;4.05;1.70;;;;;;;;;;4967627;28;20448;-86
2021/05/16 14:11:29;;;;;;;3.22;1.92;;;;;;;;;;4968797;28;20046;-86
2021/05/16 14:13:59;;;;;;;2.95;1.33;;;;;;;;;;4969297;28;20054;-86
2021/05/16 14:16:28;;;;;;;3.65;1.52;;;;;;;;;;4976348;28;20127;-85
2021/05/16 14:18:56;;;;;;;2.95;1.70;;;;;;;;;;4972179;28;20086;-85
2021/05/16 14:21:24;;;;;;;7.30;1.98;;;;;;;;;;4969867;28;20050;-86
2021/05/16 14:23:55;;;;;;;3.83;1.75;;;;;;;;;;4969676;28;20050;-86
2021/05/16 14:26:25;;;;;;;3.85;2.00;;;;;;;;;;4963363;28;20078;-85
2021/05/16 14:28:53;;;;;;;2.03;1.23;;;;;;;;;;4972097;28;20133;-86
2021/05/16 14:31:20;;;;;;;1.77;1.17;;;;;;;;;;4970271;28;20501;-86
2021/05/16 14:33:47;;;;;;;1.48;1.02;;;;;;;;;;4972183;28;20134;-86
2021/05/16 14:36:15;;;;;;;1.38;1.10;;;;;;;;;;4961515;28;20146;-82
2021/05/16 14:38:42;;;;;;;1.80;0.90;;;;;;;;;;4964761;28;20527;-85
2021/05/16 14:41:10;;;;;;;3.30;1.52;;;;;;;;;;4972459;28;20055;-85
2021/05/16 14:43:37;;;;;;;3.13;1.15;;;;;;;;;;4972680;28;20098;-86
2021/05/16 14:46:19;;;;;;;2.08;1.20;;;;;;;;;;4971809;28;20066;-80
2021/05/16 14:48:47;;;;;;;4.65;1.10;;;;;;;;;;4950875;28;20218;-79
2021/05/16 14:51:18;;;;;;;1.35;1.00;;;;;;;;;;4954515;28;20047;-80
2021/05/16 14:53:47;;;;;;;4.07;1.00;;;;;;;;;;4959930;28;20054;-80
2021/05/16 14:56:16;;;;;;;3.53;1.15;;;;;;;;;;4951089;28;20489;-80
2021/05/16 14:58:45;;;;;;;2.33;1.20;;;;;;;;;;4951316;28;20055;-79